sensor_id;sensor_type;location;lat;lon;timestamp;temperature;humidity
16158;DHT22;8184;60.256;18.694;2024-01-15T00:01:31;-4.00;99.90
16158;DHT22;8184;60.256;18.694;2024-01-15T00:04:00;-4.00;99.90
16158;DHT22;8184;60.256;18.694;2024-01-15T00:06:29;-4.00;99.90
16158;DHT22;8184;60.256;18.694;2024-01-15T00:08:59;-4.00;99.90
16158;DHT22;8184;60.256;18.694;2024-01-15T00:11:28;-4.10;99.90
16158;DHT22;8184;60.256;18.694;2024-01-15T00:13:56;-4.10;99.90
16158;DHT22;8184;60.256;18.694;2024-01-15T00:16:25;-4.10;99.90
16158;DHT22;8184;60.256;18.694;2024-01-15T00:18:53;-4.10;99.90
16158;DHT22;8184;60.256;18.694;2024-01-15T00:21:23;-4.10;99.90
16158;DHT22;8184;60.256;18.694;2024-01-15T00:23:51;-4.10;99.90
16158;DHT22;8184;60.256;18.694;2024-01-15T00:26:19;-4.10;99.90
16158;DHT22;8184;60.256;18.694;2024-01-15T00:28:50;-4.10;99.90
16158;DHT22;8184;60.256;18.694;2024-01-15T00:31:19;-4.10;99.90
16158;DHT22;8184;60.256;18.694;2024-01-15T00:33:47;-4.10;99.90
16158;DHT22;8184;60.256;18.694;2024-01-15T00:36:16;-4.10;99.90
16158;DHT22;8184;60.256;18.694;2024-01-15T00:38:46;-4.10;99.90
16158;DHT22;8184;60.256;18.694;2024-01-15T00:41:15;-4.10;99.90
16158;DHT22;8184;60.256;18.694;2024-01-15T00:43:43;-4.10;99.90
16158;DHT22;8184;60.256;18.694;2024-01-15T00:46:11;-4.20;99.90
16158;DHT22;8184;60.256;18.694;2024-01-15T00:48:42;-4.20;99.90
16158;DHT22;8184;60.256;18.694;2024-01-15T00:51:13;-4.20;99.90
16158;DHT22;8184;60.256;18.694;2024-01-15T00:53:42;-4.20;99.90
16158;DHT22;8184;60.256;18.694;2024-01-15T00:56:12;-4.30;99.90
16158;DHT22;8184;60.256;18.694;2024-01-15T00:58:40;-4.30;99.90
16158;DHT22;8184;60.256;18.694;2024-01-15T01:01:08;-4.30;99.90
16158;DHT22;8184;60.256;18.694;2024-01-15T01:03:39;-4.30;99.90
16158;DHT22;8184;60.256;18.694;2024-01-15T01:06:08;-4.30;99.90
16158;DHT22;8184;60.256;18.694;2024-01-15T01:08:36;-4.30;99.90
16158;DHT22;8184;60.256;18.694;2024-01-15T01:11:04;-4.30;99.90
16158;DHT22;8184;60.256;18.694;2024-01-15T01:13:35;-4.30;99.90
16158;DHT22;8184;60.256;18.694;2024-01-15T01:16:03;-4.30;99.90
16158;DHT22;8184;60.256;18.694;2024-01-15T01:18:31;-4.30;99.90
16158;DHT22;8184;60.256;18.694;2024-01-15T01:21:00;-4.30;99.90
16158;DHT22;8184;60.256;18.694;2024-01-15T01:23:29;-4.40;99.90
16158;DHT22;8184;60.256;18.694;2024-01-15T01:25:57;-4.30;99.90
16158;DHT22;8184;60.256;18.694;2024-01-15T01:28:26;-4.40;99.90
16158;DHT22;8184;60.256;18.694;2024-01-15T01:30:55;-4.40;99.90
16158;DHT22;8184;60.256;18.694;2024-01-15T01:33:23;-4.40;99.90
16158;DHT22;8184;60.256;18.694;2024-01-15T01:35:52;-4.40;99.90
16158;DHT22;8184;60.256;18.694;2024-01-15T01:38:21;-4.40;99.90
16158;DHT22;8184;60.256;18.694;2024-01-15T01:40:49;-4.40;99.90
16158;DHT22;8184;60.256;18.694;2024-01-15T01:43:17;-4.40;99.90
16158;DHT22;8184;60.256;18.694;2024-01-15T01:45:45;-4.40;99.90
16158;DHT22;8184;60.256;18.694;2024-01-15T01:48:15;-4.40;99.90
16158;DHT22;8184;60.256;18.694;2024-01-15T01:50:44;-4.50;99.90
16158;DHT22;8184;60.256;18.694;2024-01-15T01:53:12;-4.40;99.90
16158;DHT22;8184;60.256;18.694;2024-01-15T01:55:41;-4.40;99.90
16158;DHT22;8184;60.256;18.694;2024-01-15T01:58:10;-4.40;99.90
16158;DHT22;8184;60.256;18.694;2024-01-15T02:00:38;-4.50;99.90
16158;DHT22;8184;60.256;18.694;2024-01-15T02:03:07;-4.40;99.90
16158;DHT22;8184;60.256;18.694;2024-01-15T02:05:37;-4.50;99.90
16158;DHT22;8184;60.256;18.694;2024-01-15T02:08:07;-4.40;99.90
16158;DHT22;8184;60.256;18.694;2024-01-15T02:10:36;-4.40;99.90
16158;DHT22;8184;60.256;18.694;2024-01-15T02:13:04;-4.40;99.90
16158;DHT22;8184;60.256;18.694;2024-01-15T02:15:32;-4.40;99.90
16158;DHT22;8184;60.256;18.694;2024-01-15T02:18:03;-4.40;99.90
16158;DHT22;8184;60.256;18.694;2024-01-15T02:20:32;-4.50;99.90
16158;DHT22;8184;60.256;18.694;2024-01-15T02:23:07;-4.50;99.90
16158;DHT22;8184;60.256;18.694;2024-01-15T02:25:35;-4.50;99.90
16158;DHT22;8184;60.256;18.694;2024-01-15T02:28:04;-4.50;99.90
16158;DHT22;8184;60.256;18.694;2024-01-15T02:30:34;-4.50;99.90
16158;DHT22;8184;60.256;18.694;2024-01-15T02:33:03;-4.50;99.90
16158;DHT22;8184;60.256;18.694;2024-01-15T02:35:31;-4.50;99.90
16158;DHT22;8184;60.256;18.694;2024-01-15T02:37:59;-4.50;99.90
16158;DHT22;8184;60.256;18.694;2024-01-15T02:40:29;-4.50;99.90
16158;DHT22;8184;60.256;18.694;2024-01-15T02:42:57;-4.50;99.90
16158;DHT22;8184;60.256;18.694;2024-01-15T02:45:27;-4.50;99.90
16158;DHT22;8184;60.256;18.694;2024-01-15T02:47:55;-4.40;99.90
16158;DHT22;8184;60.256;18.694;2024-01-15T02:50:24;-4.50;99.90
16158;DHT22;8184;60.256;18.694;2024-01-15T02:52:52;-4.50;99.90
16158;DHT22;8184;60.256;18.694;2024-01-15T02:55:20;-4.60;99.90
16158;DHT22;8184;60.256;18.694;2024-01-15T02:57:50;-4.50;99.90
16158;DHT22;8184;60.256;18.694;2024-01-15T03:00:20;-4.50;99.90
16158;DHT22;8184;60.256;18.694;2024-01-15T03:02:49;-4.50;99.90
16158;DHT22;8184;60.256;18.694;2024-01-15T03:05:18;-4.60;99.90
16158;DHT22;8184;60.256;18.694;2024-01-15T03:07:47;-4.50;99.90
16158;DHT22;8184;60.256;18.694;2024-01-15T03:10:15;-4.50;99.90
16158;DHT22;8184;60.256;18.694;2024-01-15T03:12:43;-4.50;99.90
16158;DHT22;8184;60.256;18.694;2024-01-15T03:15:13;-4.60;99.90
16158;DHT22;8184;60.256;18.694;2024-01-15T03:17:41;-4.60;99.90
16158;DHT22;8184;60.256;18.694;2024-01-15T03:20:11;-4.60;99.90
16158;DHT22;8184;60.256;18.694;2024-01-15T03:22:39;-4.50;99.90
16158;DHT22;8184;60.256;18.694;2024-01-15T03:25:07;-4.50;99.90
16158;DHT22;8184;60.256;18.694;2024-01-15T03:27:36;-4.60;99.90
16158;DHT22;8184;60.256;18.694;2024-01-15T03:30:04;-4.60;99.90
16158;DHT22;8184;60.256;18.694;2024-01-15T03:32:35;-4.60;99.90
16158;DHT22;8184;60.256;18.694;2024-01-15T03:35:03;-4.60;99.90
16158;DHT22;8184;60.256;18.694;2024-01-15T03:37:31;-4.60;99.90
16158;DHT22;8184;60.256;18.694;2024-01-15T03:40:00;-4.60;99.90
16158;DHT22;8184;60.256;18.694;2024-01-15T03:42:29;-4.70;99.90
16158;DHT22;8184;60.256;18.694;2024-01-15T03:44:57;-4.70;99.90
16158;DHT22;8184;60.256;18.694;2024-01-15T03:47:26;-4.70;99.90
16158;DHT22;8184;60.256;18.694;2024-01-15T03:49:55;-4.70;99.90
16158;DHT22;8184;60.256;18.694;2024-01-15T03:52:24;-4.80;99.90
16158;DHT22;8184;60.256;18.694;2024-01-15T03:54:52;-4.70;99.90
16158;DHT22;8184;60.256;18.694;2024-01-15T03:57:20;-4.70;99.90
16158;DHT22;8184;60.256;18.694;2024-01-15T03:59:49;-4.70;99.90
16158;DHT22;8184;60.256;18.694;2024-01-15T04:02:17;-4.80;99.90
16158;DHT22;8184;60.256;18.694;2024-01-15T04:04:45;-4.80;99.90
16158;DHT22;8184;60.256;18.694;2024-01-15T04:07:15;-4.80;99.90
16158;DHT22;8184;60.256;18.694;2024-01-15T04:09:46;-4.80;99.90
16158;DHT22;8184;60.256;18.694;2024-01-15T04:12:15;-4.80;99.90
16158;DHT22;8184;60.256;18.694;2024-01-15T04:14:43;-4.80;99.90
16158;DHT22;8184;60.256;18.694;2024-01-15T04:17:11;-4.80;99.90
16158;DHT22;8184;60.256;18.694;2024-01-15T04:19:40;-4.80;99.90
16158;DHT22;8184;60.256;18.694;2024-01-15T04:22:11;-4.90;99.90
16158;DHT22;8184;60.256;18.694;2024-01-15T04:24:42;-5.00;99.90
16158;DHT22;8184;60.256;18.694;2024-01-15T04:27:10;-4.90;99.90
16158;DHT22;8184;60.256;18.694;2024-01-15T04:29:45;-4.90;99.90
16158;DHT22;8184;60.256;18.694;2024-01-15T04:32:13;-4.90;99.90
16158;DHT22;8184;60.256;18.694;2024-01-15T04:34:41;-5.00;99.90
16158;DHT22;8184;60.256;18.694;2024-01-15T04:37:10;-5.00;99.90
16158;DHT22;8184;60.256;18.694;2024-01-15T04:39:38;-5.00;99.90
16158;DHT22;8184;60.256;18.694;2024-01-15T04:42:08;-5.00;99.90
16158;DHT22;8184;60.256;18.694;2024-01-15T04:44:37;-5.00;99.90
16158;DHT22;8184;60.256;18.694;2024-01-15T04:47:05;-5.00;99.90
16158;DHT22;8184;60.256;18.694;2024-01-15T04:49:33;-5.00;99.90
16158;DHT22;8184;60.256;18.694;2024-01-15T04:52:02;-5.00;99.90
16158;DHT22;8184;60.256;18.694;2024-01-15T04:54:30;-5.00;99.90
16158;DHT22;8184;60.256;18.694;2024-01-15T04:56:58;-5.00;99.90
16158;DHT22;8184;60.256;18.694;2024-01-15T04:59:28;-5.00;99.90
16158;DHT22;8184;60.256;18.694;2024-01-15T05:01:56;-5.00;99.90
16158;DHT22;8184;60.256;18.694;2024-01-15T05:04:24;-5.00;99.90
16158;DHT22;8184;60.256;18.694;2024-01-15T05:06:53;-5.00;99.90
16158;DHT22;8184;60.256;18.694;2024-01-15T05:09:21;-5.00;99.90
16158;DHT22;8184;60.256;18.694;2024-01-15T05:11:55;-5.10;99.90
16158;DHT22;8184;60.256;18.694;2024-01-15T05:14:27;-5.00;99.90
16158;DHT22;8184;60.256;18.694;2024-01-15T05:16:56;-5.00;99.90
16158;DHT22;8184;60.256;18.694;2024-01-15T05:19:24;-4.90;99.90
16158;DHT22;8184;60.256;18.694;2024-01-15T05:21:53;-4.90;99.90
16158;DHT22;8184;60.256;18.694;2024-01-15T05:24:21;-5.00;99.90
16158;DHT22;8184;60.256;18.694;2024-01-15T05:26:49;-5.00;99.90
16158;DHT22;8184;60.256;18.694;2024-01-15T05:29:20;-5.00;99.90
16158;DHT22;8184;60.256;18.694;2024-01-15T05:31:49;-5.00;99.90
16158;DHT22;8184;60.256;18.694;2024-01-15T05:34:22;-5.00;99.90
16158;DHT22;8184;60.256;18.694;2024-01-15T05:36:50;-5.00;99.90
16158;DHT22;8184;60.256;18.694;2024-01-15T05:39:18;-5.00;99.90
16158;DHT22;8184;60.256;18.694;2024-01-15T05:41:49;-5.00;99.90
16158;DHT22;8184;60.256;18.694;2024-01-15T05:44:20;-5.00;99.90
16158;DHT22;8184;60.256;18.694;2024-01-15T05:46:51;-5.00;99.90
16158;DHT22;8184;60.256;18.694;2024-01-15T05:49:19;-5.00;99.90
16158;DHT22;8184;60.256;18.694;2024-01-15T05:51:48;-5.00;99.90
16158;DHT22;8184;60.256;18.694;2024-01-15T05:54:17;-5.00;99.90
16158;DHT22;8184;60.256;18.694;2024-01-15T05:56:45;-5.00;99.90
16158;DHT22;8184;60.256;18.694;2024-01-15T05:59:13;-5.10;99.90
16158;DHT22;8184;60.256;18.694;2024-01-15T06:01:42;-5.00;99.90
16158;DHT22;8184;60.256;18.694;2024-01-15T06:04:11;-5.00;99.90
16158;DHT22;8184;60.256;18.694;2024-01-15T06:06:42;-5.00;99.90
16158;DHT22;8184;60.256;18.694;2024-01-15T06:09:11;-5.00;99.90
16158;DHT22;8184;60.256;18.694;2024-01-15T06:11:39;-5.00;99.90
16158;DHT22;8184;60.256;18.694;2024-01-15T06:14:07;-5.10;99.90
16158;DHT22;8184;60.256;18.694;2024-01-15T06:16:35;-5.10;99.90
16158;DHT22;8184;60.256;18.694;2024-01-15T06:19:06;-5.10;99.90
16158;DHT22;8184;60.256;18.694;2024-01-15T06:21:36;-5.10;99.90
16158;DHT22;8184;60.256;18.694;2024-01-15T06:24:05;-5.00;99.90
16158;DHT22;8184;60.256;18.694;2024-01-15T06:26:33;-5.10;99.90
16158;DHT22;8184;60.256;18.694;2024-01-15T06:29:02;-5.10;99.90
16158;DHT22;8184;60.256;18.694;2024-01-15T06:31:30;-5.00;99.90
16158;DHT22;8184;60.256;18.694;2024-01-15T06:33:59;-5.10;99.90
16158;DHT22;8184;60.256;18.694;2024-01-15T06:36:29;-5.10;99.90
16158;DHT22;8184;60.256;18.694;2024-01-15T06:38:59;-5.10;99.90
16158;DHT22;8184;60.256;18.694;2024-01-15T06:41:27;-5.10;99.90
16158;DHT22;8184;60.256;18.694;2024-01-15T06:43:56;-5.10;99.90
16158;DHT22;8184;60.256;18.694;2024-01-15T06:46:24;-5.10;99.90
16158;DHT22;8184;60.256;18.694;2024-01-15T06:48:55;-5.10;99.90
16158;DHT22;8184;60.256;18.694;2024-01-15T06:51:23;-5.00;99.90
16158;DHT22;8184;60.256;18.694;2024-01-15T06:53:51;-5.10;99.90
16158;DHT22;8184;60.256;18.694;2024-01-15T06:56:21;-5.10;99.90
16158;DHT22;8184;60.256;18.694;2024-01-15T06:58:50;-5.20;99.90
16158;DHT22;8184;60.256;18.694;2024-01-15T07:01:19;-5.10;99.90
16158;DHT22;8184;60.256;18.694;2024-01-15T07:03:47;-5.20;99.90
16158;DHT22;8184;60.256;18.694;2024-01-15T07:06:15;-5.10;99.90
16158;DHT22;8184;60.256;18.694;2024-01-15T07:08:44;-5.10;99.90
16158;DHT22;8184;60.256;18.694;2024-01-15T07:11:12;-5.10;99.90
16158;DHT22;8184;60.256;18.694;2024-01-15T07:13:42;-5.10;99.90
16158;DHT22;8184;60.256;18.694;2024-01-15T07:16:13;-5.20;99.90
16158;DHT22;8184;60.256;18.694;2024-01-15T07:19:00;-5.20;99.90
16158;DHT22;8184;60.256;18.694;2024-01-15T07:21:28;-5.20;99.90
16158;DHT22;8184;60.256;18.694;2024-01-15T07:23:57;-5.20;99.90
16158;DHT22;8184;60.256;18.694;2024-01-15T07:26:25;-5.20;99.90
16158;DHT22;8184;60.256;18.694;2024-01-15T07:28:55;-5.20;99.90
16158;DHT22;8184;60.256;18.694;2024-01-15T07:31:23;-5.10;99.90
16158;DHT22;8184;60.256;18.694;2024-01-15T07:33:51;-5.20;99.90
16158;DHT22;8184;60.256;18.694;2024-01-15T07:36:21;-5.20;99.90
16158;DHT22;8184;60.256;18.694;2024-01-15T07:38:49;-5.20;99.90
16158;DHT22;8184;60.256;18.694;2024-01-15T07:41:18;-5.20;99.90
16158;DHT22;8184;60.256;18.694;2024-01-15T07:43:46;-5.20;99.90
16158;DHT22;8184;60.256;18.694;2024-01-15T07:46:16;-5.20;99.90
16158;DHT22;8184;60.256;18.694;2024-01-15T07:48:44;-5.20;99.90
16158;DHT22;8184;60.256;18.694;2024-01-15T07:51:12;-5.20;99.90
16158;DHT22;8184;60.256;18.694;2024-01-15T07:53:41;-5.20;99.90
16158;DHT22;8184;60.256;18.694;2024-01-15T07:56:09;-5.20;99.90
16158;DHT22;8184;60.256;18.694;2024-01-15T07:58:37;-5.20;99.90
16158;DHT22;8184;60.256;18.694;2024-01-15T08:01:05;-5.20;99.90
16158;DHT22;8184;60.256;18.694;2024-01-15T08:03:35;-5.20;99.90
16158;DHT22;8184;60.256;18.694;2024-01-15T08:06:04;-5.20;99.90
16158;DHT22;8184;60.256;18.694;2024-01-15T08:08:33;-5.30;99.90
16158;DHT22;8184;60.256;18.694;2024-01-15T08:11:02;-5.30;99.90
16158;DHT22;8184;60.256;18.694;2024-01-15T08:13:30;-5.30;99.90
16158;DHT22;8184;60.256;18.694;2024-01-15T08:16:00;-5.30;99.90
16158;DHT22;8184;60.256;18.694;2024-01-15T08:18:29;-5.30;99.90
16158;DHT22;8184;60.256;18.694;2024-01-15T08:20:59;-5.30;99.90
16158;DHT22;8184;60.256;18.694;2024-01-15T08:23:27;-5.30;99.90
16158;DHT22;8184;60.256;18.694;2024-01-15T08:25:58;-5.30;99.90
16158;DHT22;8184;60.256;18.694;2024-01-15T08:28:26;-5.30;99.90
16158;DHT22;8184;60.256;18.694;2024-01-15T08:30:54;-5.30;99.90
16158;DHT22;8184;60.256;18.694;2024-01-15T08:33:22;-5.20;99.90
16158;DHT22;8184;60.256;18.694;2024-01-15T08:35:51;-5.20;99.90
16158;DHT22;8184;60.256;18.694;2024-01-15T08:38:20;-5.20;99.90
16158;DHT22;8184;60.256;18.694;2024-01-15T08:40:49;-5.20;99.90
16158;DHT22;8184;60.256;18.694;2024-01-15T08:43:17;-5.20;99.90
16158;DHT22;8184;60.256;18.694;2024-01-15T08:45:46;-5.30;99.90
16158;DHT22;8184;60.256;18.694;2024-01-15T08:48:15;-5.30;99.90
16158;DHT22;8184;60.256;18.694;2024-01-15T08:50:43;-5.20;99.90
16158;DHT22;8184;60.256;18.694;2024-01-15T08:53:13;-5.20;99.90
16158;DHT22;8184;60.256;18.694;2024-01-15T08:55:43;-5.20;99.90
16158;DHT22;8184;60.256;18.694;2024-01-15T08:58:11;-5.20;99.90
16158;DHT22;8184;60.256;18.694;2024-01-15T09:00:39;-5.10;99.90
16158;DHT22;8184;60.256;18.694;2024-01-15T09:03:08;-5.20;99.90
16158;DHT22;8184;60.256;18.694;2024-01-15T09:05:36;-5.20;99.90
16158;DHT22;8184;60.256;18.694;2024-01-15T09:08:05;-5.20;99.90
16158;DHT22;8184;60.256;18.694;2024-01-15T09:10:33;-5.30;99.90
16158;DHT22;8184;60.256;18.694;2024-01-15T09:13:03;-5.30;99.90
16158;DHT22;8184;60.256;18.694;2024-01-15T09:15:34;-5.20;99.90
16158;DHT22;8184;60.256;18.694;2024-01-15T09:18:02;-5.20;99.90
16158;DHT22;8184;60.256;18.694;2024-01-15T09:20:34;-5.20;99.90
16158;DHT22;8184;60.256;18.694;2024-01-15T09:23:03;-5.20;99.90
16158;DHT22;8184;60.256;18.694;2024-01-15T09:25:31;-5.20;99.90
16158;DHT22;8184;60.256;18.694;2024-01-15T09:28:00;-5.30;99.90
16158;DHT22;8184;60.256;18.694;2024-01-15T09:30:30;-5.30;99.90
16158;DHT22;8184;60.256;18.694;2024-01-15T09:32:59;-5.20;99.90
16158;DHT22;8184;60.256;18.694;2024-01-15T09:35:27;-5.20;99.90
16158;DHT22;8184;60.256;18.694;2024-01-15T09:37:55;-5.10;99.90
16158;DHT22;8184;60.256;18.694;2024-01-15T09:40:23;-5.20;99.90
16158;DHT22;8184;60.256;18.694;2024-01-15T09:42:53;-5.30;99.90
16158;DHT22;8184;60.256;18.694;2024-01-15T09:45:21;-5.20;99.90
16158;DHT22;8184;60.256;18.694;2024-01-15T09:47:52;-5.20;99.90
16158;DHT22;8184;60.256;18.694;2024-01-15T09:50:20;-5.20;99.90
16158;DHT22;8184;60.256;18.694;2024-01-15T09:52:48;-5.20;99.90
16158;DHT22;8184;60.256;18.694;2024-01-15T09:55:17;-5.20;99.90
16158;DHT22;8184;60.256;18.694;2024-01-15T09:57:45;-5.20;99.90
16158;DHT22;8184;60.256;18.694;2024-01-15T10:00:14;-5.20;99.90
16158;DHT22;8184;60.256;18.694;2024-01-15T10:02:45;-5.20;99.90
16158;DHT22;8184;60.256;18.694;2024-01-15T10:05:15;-5.20;99.90
16158;DHT22;8184;60.256;18.694;2024-01-15T10:07:45;-5.20;99.90
16158;DHT22;8184;60.256;18.694;2024-01-15T10:10:14;-5.20;99.90
16158;DHT22;8184;60.256;18.694;2024-01-15T10:12:45;-5.20;99.90
16158;DHT22;8184;60.256;18.694;2024-01-15T10:15:14;-5.20;99.90
16158;DHT22;8184;60.256;18.694;2024-01-15T10:17:44;-5.20;99.90
16158;DHT22;8184;60.256;18.694;2024-01-15T10:20:14;-5.30;99.90
16158;DHT22;8184;60.256;18.694;2024-01-15T10:22:43;-5.20;99.90
16158;DHT22;8184;60.256;18.694;2024-01-15T10:25:15;-5.20;99.90
16158;DHT22;8184;60.256;18.694;2024-01-15T10:27:57;-5.20;99.90
16158;DHT22;8184;60.256;18.694;2024-01-15T10:30:29;-5.20;99.90
16158;DHT22;8184;60.256;18.694;2024-01-15T10:32:58;-5.20;99.90
16158;DHT22;8184;60.256;18.694;2024-01-15T10:35:30;-5.20;99.90
16158;DHT22;8184;60.256;18.694;2024-01-15T10:37:59;-5.20;99.90
16158;DHT22;8184;60.256;18.694;2024-01-15T10:40:28;-5.20;99.90
16158;DHT22;8184;60.256;18.694;2024-01-15T10:42:56;-5.10;99.90
16158;DHT22;8184;60.256;18.694;2024-01-15T10:45:24;-5.10;99.90
16158;DHT22;8184;60.256;18.694;2024-01-15T10:47:54;-5.20;99.90
16158;DHT22;8184;60.256;18.694;2024-01-15T10:50:29;-5.20;99.90
16158;DHT22;8184;60.256;18.694;2024-01-15T10:52:59;-5.20;99.90
16158;DHT22;8184;60.256;18.694;2024-01-15T10:55:30;-5.20;99.90
16158;DHT22;8184;60.256;18.694;2024-01-15T10:57:58;-5.20;99.90
16158;DHT22;8184;60.256;18.694;2024-01-15T11:00:27;-5.20;99.90
16158;DHT22;8184;60.256;18.694;2024-01-15T11:02:55;-5.20;99.90
16158;DHT22;8184;60.256;18.694;2024-01-15T11:05:24;-5.20;99.90
16158;DHT22;8184;60.256;18.694;2024-01-15T11:07:56;-5.20;99.90
16158;DHT22;8184;60.256;18.694;2024-01-15T11:10:40;-5.20;99.90
16158;DHT22;8184;60.256;18.694;2024-01-15T11:13:09;-5.20;99.90
16158;DHT22;8184;60.256;18.694;2024-01-15T11:15:54;-5.20;99.90
16158;DHT22;8184;60.256;18.694;2024-01-15T11:18:22;-5.20;99.90
16158;DHT22;8184;60.256;18.694;2024-01-15T11:23:43;-5.20;99.90
16158;DHT22;8184;60.256;18.694;2024-01-15T11:26:30;-5.10;99.90
16158;DHT22;8184;60.256;18.694;2024-01-15T11:28:59;-5.10;99.90
16158;DHT22;8184;60.256;18.694;2024-01-15T11:31:28;-5.20;99.90
16158;DHT22;8184;60.256;18.694;2024-01-15T11:33:57;-5.20;99.90
16158;DHT22;8184;60.256;18.694;2024-01-15T11:42:07;-5.20;99.90
16158;DHT22;8184;60.256;18.694;2024-01-15T11:44:36;-5.30;99.90
16158;DHT22;8184;60.256;18.694;2024-01-15T11:47:07;-5.30;99.90
16158;DHT22;8184;60.256;18.694;2024-01-15T11:52:25;-5.30;99.90
16158;DHT22;8184;60.256;18.694;2024-01-15T11:54:55;-5.20;99.90
16158;DHT22;8184;60.256;18.694;2024-01-15T11:57:32;-5.20;99.90
16158;DHT22;8184;60.256;18.694;2024-01-15T12:00:01;-5.20;99.90
16158;DHT22;8184;60.256;18.694;2024-01-15T12:02:30;-5.20;99.90
16158;DHT22;8184;60.256;18.694;2024-01-15T12:04:59;-5.20;99.90
16158;DHT22;8184;60.256;18.694;2024-01-15T12:07:27;-5.20;99.90
16158;DHT22;8184;60.256;18.694;2024-01-15T12:09:56;-5.20;99.90
16158;DHT22;8184;60.256;18.694;2024-01-15T12:12:24;-5.30;99.90
16158;DHT22;8184;60.256;18.694;2024-01-15T12:14:57;-5.20;99.90
16158;DHT22;8184;60.256;18.694;2024-01-15T12:17:27;-5.20;99.90
16158;DHT22;8184;60.256;18.694;2024-01-15T12:19:56;-5.20;99.90
16158;DHT22;8184;60.256;18.694;2024-01-15T12:22:24;-5.20;99.90
16158;DHT22;8184;60.256;18.694;2024-01-15T12:24:54;-5.30;99.90
16158;DHT22;8184;60.256;18.694;2024-01-15T12:27:24;-5.30;99.90
16158;DHT22;8184;60.256;18.694;2024-01-15T12:29:53;-5.30;99.90
16158;DHT22;8184;60.256;18.694;2024-01-15T12:32:24;-5.30;99.90
16158;DHT22;8184;60.256;18.694;2024-01-15T12:34:55;-5.30;99.90
16158;DHT22;8184;60.256;18.694;2024-01-15T12:37:24;-5.30;99.90
16158;DHT22;8184;60.256;18.694;2024-01-15T12:39:53;-5.30;99.90
16158;DHT22;8184;60.256;18.694;2024-01-15T12:42:21;-5.20;99.90
16158;DHT22;8184;60.256;18.694;2024-01-15T12:44:50;-5.30;99.90
16158;DHT22;8184;60.256;18.694;2024-01-15T12:47:18;-5.30;99.90
16158;DHT22;8184;60.256;18.694;2024-01-15T12:49:50;-5.30;99.90
16158;DHT22;8184;60.256;18.694;2024-01-15T12:52:31;-5.30;99.90
16158;DHT22;8184;60.256;18.694;2024-01-15T12:55:00;-5.20;99.90
16158;DHT22;8184;60.256;18.694;2024-01-15T12:57:29;-5.20;99.90
16158;DHT22;8184;60.256;18.694;2024-01-15T12:59:57;-5.40;99.90
16158;DHT22;8184;60.256;18.694;2024-01-15T13:02:25;-5.40;99.90
16158;DHT22;8184;60.256;18.694;2024-01-15T13:04:55;-5.40;99.90
16158;DHT22;8184;60.256;18.694;2024-01-15T13:07:27;-5.30;99.90
16158;DHT22;8184;60.256;18.694;2024-01-15T13:09:58;-5.30;99.90
16158;DHT22;8184;60.256;18.694;2024-01-15T13:12:26;-5.30;99.90
16158;DHT22;8184;60.256;18.694;2024-01-15T13:14:55;-5.40;99.90
16158;DHT22;8184;60.256;18.694;2024-01-15T13:17:25;-5.40;99.90
16158;DHT22;8184;60.256;18.694;2024-01-15T13:19:56;-5.30;99.90
16158;DHT22;8184;60.256;18.694;2024-01-15T13:22:26;-5.40;99.90
16158;DHT22;8184;60.256;18.694;2024-01-15T13:24:59;-5.40;99.90
16158;DHT22;8184;60.256;18.694;2024-01-15T13:27:30;-5.40;99.90
16158;DHT22;8184;60.256;18.694;2024-01-15T13:29:59;-5.40;99.90
16158;DHT22;8184;60.256;18.694;2024-01-15T13:32:27;-5.30;99.90
16158;DHT22;8184;60.256;18.694;2024-01-15T13:34:57;-5.30;99.90
16158;DHT22;8184;60.256;18.694;2024-01-15T13:37:26;-5.40;99.90
16158;DHT22;8184;60.256;18.694;2024-01-15T13:39:54;-5.40;99.90
16158;DHT22;8184;60.256;18.694;2024-01-15T13:42:23;-5.40;99.90
16158;DHT22;8184;60.256;18.694;2024-01-15T13:44:54;-5.40;99.90
16158;DHT22;8184;60.256;18.694;2024-01-15T13:47:22;-5.50;99.90
16158;DHT22;8184;60.256;18.694;2024-01-15T13:49:51;-5.40;99.90
16158;DHT22;8184;60.256;18.694;2024-01-15T13:52:20;-5.30;99.90
16158;DHT22;8184;60.256;18.694;2024-01-15T13:54:49;-5.30;99.90
16158;DHT22;8184;60.256;18.694;2024-01-15T13:57:17;-5.40;99.90
16158;DHT22;8184;60.256;18.694;2024-01-15T13:59:47;-5.40;99.90
16158;DHT22;8184;60.256;18.694;2024-01-15T14:02:16;-5.40;99.90
16158;DHT22;8184;60.256;18.694;2024-01-15T14:04:48;-5.40;99.90
16158;DHT22;8184;60.256;18.694;2024-01-15T14:07:16;-5.40;99.90
16158;DHT22;8184;60.256;18.694;2024-01-15T14:09:48;-5.30;99.90
16158;DHT22;8184;60.256;18.694;2024-01-15T14:12:17;-5.30;99.90
16158;DHT22;8184;60.256;18.694;2024-01-15T14:14:45;-5.30;99.90
16158;DHT22;8184;60.256;18.694;2024-01-15T14:17:14;-5.40;99.90
16158;DHT22;8184;60.256;18.694;2024-01-15T14:19:42;-5.40;99.90
16158;DHT22;8184;60.256;18.694;2024-01-15T14:22:11;-5.40;99.90
16158;DHT22;8184;60.256;18.694;2024-01-15T14:24:39;-5.30;99.90
16158;DHT22;8184;60.256;18.694;2024-01-15T14:27:09;-5.30;99.90
16158;DHT22;8184;60.256;18.694;2024-01-15T14:29:38;-5.40;99.90
16158;DHT22;8184;60.256;18.694;2024-01-15T14:32:06;-5.50;99.90
16158;DHT22;8184;60.256;18.694;2024-01-15T14:34:34;-5.40;99.90
16158;DHT22;8184;60.256;18.694;2024-01-15T14:37:04;-5.30;99.90
16158;DHT22;8184;60.256;18.694;2024-01-15T14:39:33;-5.30;99.90
16158;DHT22;8184;60.256;18.694;2024-01-15T14:42:01;-5.30;99.90
16158;DHT22;8184;60.256;18.694;2024-01-15T14:44:33;-5.30;99.90
16158;DHT22;8184;60.256;18.694;2024-01-15T14:47:01;-5.20;99.90
16158;DHT22;8184;60.256;18.694;2024-01-15T14:49:30;-5.40;99.90
16158;DHT22;8184;60.256;18.694;2024-01-15T14:51:59;-5.40;99.90
16158;DHT22;8184;60.256;18.694;2024-01-15T14:54:27;-5.40;99.90
16158;DHT22;8184;60.256;18.694;2024-01-15T14:56:55;-5.40;99.90
16158;DHT22;8184;60.256;18.694;2024-01-15T14:59:24;-5.30;99.90
16158;DHT22;8184;60.256;18.694;2024-01-15T15:01:53;-5.30;99.90
16158;DHT22;8184;60.256;18.694;2024-01-15T15:04:23;-5.20;99.90
16158;DHT22;8184;60.256;18.694;2024-01-15T15:06:52;-5.20;99.90
16158;DHT22;8184;60.256;18.694;2024-01-15T15:09:20;-5.20;99.90
16158;DHT22;8184;60.256;18.694;2024-01-15T15:11:49;-5.20;99.90
16158;DHT22;8184;60.256;18.694;2024-01-15T15:14:18;-5.30;99.90
16158;DHT22;8184;60.256;18.694;2024-01-15T15:16:47;-5.30;99.90
16158;DHT22;8184;60.256;18.694;2024-01-15T15:19:20;-5.20;99.90
16158;DHT22;8184;60.256;18.694;2024-01-15T15:21:49;-5.20;99.90
16158;DHT22;8184;60.256;18.694;2024-01-15T15:24:17;-5.30;99.90
16158;DHT22;8184;60.256;18.694;2024-01-15T15:26:45;-5.30;99.90
16158;DHT22;8184;60.256;18.694;2024-01-15T15:29:14;-5.30;99.90
16158;DHT22;8184;60.256;18.694;2024-01-15T15:31:43;-5.30;99.90
16158;DHT22;8184;60.256;18.694;2024-01-15T15:34:12;-5.30;99.90
16158;DHT22;8184;60.256;18.694;2024-01-15T15:36:42;-5.30;99.90
16158;DHT22;8184;60.256;18.694;2024-01-15T15:39:13;-5.30;99.90
16158;DHT22;8184;60.256;18.694;2024-01-15T15:41:43;-5.30;99.90
16158;DHT22;8184;60.256;18.694;2024-01-15T15:44:14;-5.30;99.90
16158;DHT22;8184;60.256;18.694;2024-01-15T15:46:43;-5.30;99.90
16158;DHT22;8184;60.256;18.694;2024-01-15T15:49:12;-5.40;99.90
16158;DHT22;8184;60.256;18.694;2024-01-15T15:51:41;-5.40;99.90
16158;DHT22;8184;60.256;18.694;2024-01-15T15:54:10;-5.50;99.90